sensor_id;sensor_type;location;lat;lon;timestamp;temperature;humidity
44707;DHT22;30433;45.596;8.408;2023-03-01T00:03:00;3.00;99.90
44707;DHT22;30433;45.596;8.408;2023-03-01T00:09:02;2.80;99.90
44707;DHT22;30433;45.596;8.408;2023-03-01T00:15:07;2.80;99.90
44707;DHT22;30433;45.596;8.408;2023-03-01T00:21:09;2.80;99.90
44707;DHT22;30433;45.596;8.408;2023-03-01T00:27:11;2.70;99.90
44707;DHT22;30433;45.596;8.408;2023-03-01T00:33:14;2.70;99.90
44707;DHT22;30433;45.596;8.408;2023-03-01T00:39:16;2.80;99.90
44707;DHT22;30433;45.596;8.408;2023-03-01T00:45:18;2.90;99.90
44707;DHT22;30433;45.596;8.408;2023-03-01T00:51:22;2.80;99.90
44707;DHT22;30433;45.596;8.408;2023-03-01T00:57:26;2.90;99.90
44707;DHT22;30433;45.596;8.408;2023-03-01T01:03:28;2.90;99.90
44707;DHT22;30433;45.596;8.408;2023-03-01T01:09:32;2.80;99.90
44707;DHT22;30433;45.596;8.408;2023-03-01T01:15:34;2.80;99.90
44707;DHT22;30433;45.596;8.408;2023-03-01T01:21:36;2.90;99.90
44707;DHT22;30433;45.596;8.408;2023-03-01T01:27:39;2.80;99.90
44707;DHT22;30433;45.596;8.408;2023-03-01T01:33:41;2.80;99.90
44707;DHT22;30433;45.596;8.408;2023-03-01T01:39:43;2.80;99.90
44707;DHT22;30433;45.596;8.408;2023-03-01T01:45:47;2.80;99.90
44707;DHT22;30433;45.596;8.408;2023-03-01T01:51:49;2.80;99.90
44707;DHT22;30433;45.596;8.408;2023-03-01T01:57:53;2.70;99.90
44707;DHT22;30433;45.596;8.408;2023-03-01T02:03:57;2.70;99.90
44707;DHT22;30433;45.596;8.408;2023-03-01T02:10:00;2.60;99.90
44707;DHT22;30433;45.596;8.408;2023-03-01T02:16:02;2.40;99.90
44707;DHT22;30433;45.596;8.408;2023-03-01T02:22:10;2.40;99.90
44707;DHT22;30433;45.596;8.408;2023-03-01T02:28:21;2.40;99.90
44707;DHT22;30433;45.596;8.408;2023-03-01T02:34:24;2.30;99.90
44707;DHT22;30433;45.596;8.408;2023-03-01T02:40:27;2.30;99.90
44707;DHT22;30433;45.596;8.408;2023-03-01T02:46:31;2.30;99.90
44707;DHT22;30433;45.596;8.408;2023-03-01T02:52:35;2.50;99.90
44707;DHT22;30433;45.596;8.408;2023-03-01T02:58:42;2.50;99.90
44707;DHT22;30433;45.596;8.408;2023-03-01T03:04:49;2.50;99.90
44707;DHT22;30433;45.596;8.408;2023-03-01T03:10:51;2.50;99.90
44707;DHT22;30433;45.596;8.408;2023-03-01T03:16:53;2.40;99.90
44707;DHT22;30433;45.596;8.408;2023-03-01T03:22:57;2.40;99.90
44707;DHT22;30433;45.596;8.408;2023-03-01T03:28:59;2.50;99.90
44707;DHT22;30433;45.596;8.408;2023-03-01T03:35:01;2.40;99.90
44707;DHT22;30433;45.596;8.408;2023-03-01T03:41:11;2.30;99.90
44707;DHT22;30433;45.596;8.408;2023-03-01T03:47:13;2.50;99.90
44707;DHT22;30433;45.596;8.408;2023-03-01T03:53:15;2.50;99.90
44707;DHT22;30433;45.596;8.408;2023-03-01T03:59:18;2.30;99.90
44707;DHT22;30433;45.596;8.408;2023-03-01T04:05:20;2.40;99.90
44707;DHT22;30433;45.596;8.408;2023-03-01T04:11:22;2.50;99.90
44707;DHT22;30433;45.596;8.408;2023-03-01T04:17:31;2.50;99.90
44707;DHT22;30433;45.596;8.408;2023-03-01T04:23:34;2.40;99.90
44707;DHT22;30433;45.596;8.408;2023-03-01T04:29:36;2.40;99.90
44707;DHT22;30433;45.596;8.408;2023-03-01T04:35:39;2.60;99.90
44707;DHT22;30433;45.596;8.408;2023-03-01T04:41:41;2.60;99.90
44707;DHT22;30433;45.596;8.408;2023-03-01T04:47:45;2.50;99.90
44707;DHT22;30433;45.596;8.408;2023-03-01T04:53:48;2.60;99.90
44707;DHT22;30433;45.596;8.408;2023-03-01T04:59:50;2.70;99.90
44707;DHT22;30433;45.596;8.408;2023-03-01T05:05:52;2.70;99.90
44707;DHT22;30433;45.596;8.408;2023-03-01T05:11:56;2.70;99.90
44707;DHT22;30433;45.596;8.408;2023-03-01T05:17:58;2.50;99.90
44707;DHT22;30433;45.596;8.408;2023-03-01T05:24:00;2.20;99.90
44707;DHT22;30433;45.596;8.408;2023-03-01T05:30:04;2.20;99.90
44707;DHT22;30433;45.596;8.408;2023-03-01T05:36:13;1.70;99.90
44707;DHT22;30433;45.596;8.408;2023-03-01T05:42:15;1.30;99.90
44707;DHT22;30433;45.596;8.408;2023-03-01T05:48:19;1.50;99.90
44707;DHT22;30433;45.596;8.408;2023-03-01T05:54:21;1.60;99.90
44707;DHT22;30433;45.596;8.408;2023-03-01T06:00:23;1.30;99.90
44707;DHT22;30433;45.596;8.408;2023-03-01T06:06:26;1.50;99.90
44707;DHT22;30433;45.596;8.408;2023-03-01T06:12:30;1.40;99.90
44707;DHT22;30433;45.596;8.408;2023-03-01T06:18:32;1.40;99.90
44707;DHT22;30433;45.596;8.408;2023-03-01T06:24:35;1.50;99.90
44707;DHT22;30433;45.596;8.408;2023-03-01T06:30:37;1.60;99.90
44707;DHT22;30433;45.596;8.408;2023-03-01T06:36:39;1.20;99.90
44707;DHT22;30433;45.596;8.408;2023-03-01T06:42:43;1.30;99.90
44707;DHT22;30433;45.596;8.408;2023-03-01T06:48:46;1.70;99.90
44707;DHT22;30433;45.596;8.408;2023-03-01T06:54:47;1.80;99.90
44707;DHT22;30433;45.596;8.408;2023-03-01T07:00:51;2.10;99.90
44707;DHT22;30433;45.596;8.408;2023-03-01T07:06:53;2.30;99.90
44707;DHT22;30433;45.596;8.408;2023-03-01T07:12:55;2.20;99.90
44707;DHT22;30433;45.596;8.408;2023-03-01T07:18:59;2.20;99.90
44707;DHT22;30433;45.596;8.408;2023-03-01T07:25:01;2.30;99.90
44707;DHT22;30433;45.596;8.408;2023-03-01T07:31:03;2.40;99.90
44707;DHT22;30433;45.596;8.408;2023-03-01T07:37:06;2.40;99.90
44707;DHT22;30433;45.596;8.408;2023-03-01T07:43:08;2.40;99.90
44707;DHT22;30433;45.596;8.408;2023-03-01T07:49:10;2.50;99.90
44707;DHT22;30433;45.596;8.408;2023-03-01T07:55:13;2.70;99.90
44707;DHT22;30433;45.596;8.408;2023-03-01T08:01:17;2.90;99.90
44707;DHT22;30433;45.596;8.408;2023-03-01T08:07:19;3.10;99.90
44707;DHT22;30433;45.596;8.408;2023-03-01T08:13:22;3.20;99.90
44707;DHT22;30433;45.596;8.408;2023-03-01T08:19:24;3.30;99.90
44707;DHT22;30433;45.596;8.408;2023-03-01T08:25:28;3.80;99.90
44707;DHT22;30433;45.596;8.408;2023-03-01T08:31:32;3.70;99.90
44707;DHT22;30433;45.596;8.408;2023-03-01T08:37:35;4.30;99.90
44707;DHT22;30433;45.596;8.408;2023-03-01T08:43:37;4.50;99.90
44707;DHT22;30433;45.596;8.408;2023-03-01T08:49:41;4.80;99.90
44707;DHT22;30433;45.596;8.408;2023-03-01T08:55:42;4.70;99.90
44707;DHT22;30433;45.596;8.408;2023-03-01T09:01:44;5.00;99.30
44707;DHT22;30433;45.596;8.408;2023-03-01T09:07:48;5.20;98.70
44707;DHT22;30433;45.596;8.408;2023-03-01T09:13:50;5.30;97.80
44707;DHT22;30433;45.596;8.408;2023-03-01T09:19:52;5.40;97.30
44707;DHT22;30433;45.596;8.408;2023-03-01T09:25:55;5.50;97.40
44707;DHT22;30433;45.596;8.408;2023-03-01T09:31:57;5.60;97.20
44707;DHT22;30433;45.596;8.408;2023-03-01T09:37:59;5.60;97.50
44707;DHT22;30433;45.596;8.408;2023-03-01T09:44:03;5.90;97.40
44707;DHT22;30433;45.596;8.408;2023-03-01T09:50:09;6.10;97.10
44707;DHT22;30433;45.596;8.408;2023-03-01T09:56:13;6.00;95.80
44707;DHT22;30433;45.596;8.408;2023-03-01T10:02:26;6.30;96.70
44707;DHT22;30433;45.596;8.408;2023-03-01T10:08:34;6.30;96.30
44707;DHT22;30433;45.596;8.408;2023-03-01T10:14:40;6.30;95.30
44707;DHT22;30433;45.596;8.408;2023-03-01T10:20:48;6.40;95.40
44707;DHT22;30433;45.596;8.408;2023-03-01T10:26:54;6.60;94.40
44707;DHT22;30433;45.596;8.408;2023-03-01T10:32:56;7.00;95.10
44707;DHT22;30433;45.596;8.408;2023-03-01T10:39:00;6.90;94.50
44707;DHT22;30433;45.596;8.408;2023-03-01T10:45:19;6.80;94.50
44707;DHT22;30433;45.596;8.408;2023-03-01T10:51:27;6.90;94.90
44707;DHT22;30433;45.596;8.408;2023-03-01T10:57:32;7.20;94.80
44707;DHT22;30433;45.596;8.408;2023-03-01T11:03:36;7.30;94.60
44707;DHT22;30433;45.596;8.408;2023-03-01T11:09:39;7.80;96.00
44707;DHT22;30433;45.596;8.408;2023-03-01T11:15:42;7.70;94.80
44707;DHT22;30433;45.596;8.408;2023-03-01T11:21:48;7.80;94.20
44707;DHT22;30433;45.596;8.408;2023-03-01T11:27:52;8.10;94.70
44707;DHT22;30433;45.596;8.408;2023-03-01T11:33:56;8.00;94.30
44707;DHT22;30433;45.596;8.408;2023-03-01T11:40:03;8.10;94.50
44707;DHT22;30433;45.596;8.408;2023-03-01T11:52:37;8.30;94.30
44707;DHT22;30433;45.596;8.408;2023-03-01T11:58:44;8.40;94.70
44707;DHT22;30433;45.596;8.408;2023-03-01T12:04:59;8.90;93.90
44707;DHT22;30433;45.596;8.408;2023-03-01T12:11:11;8.60;92.90
44707;DHT22;30433;45.596;8.408;2023-03-01T12:17:21;8.70;93.20
44707;DHT22;30433;45.596;8.408;2023-03-01T12:29:47;8.80;93.50
44707;DHT22;30433;45.596;8.408;2023-03-01T12:35:54;9.00;93.50
44707;DHT22;30433;45.596;8.408;2023-03-01T12:42:03;8.90;93.90
44707;DHT22;30433;45.596;8.408;2023-03-01T12:48:20;8.90;93.90
44707;DHT22;30433;45.596;8.408;2023-03-01T12:54:26;8.90;94.40
44707;DHT22;30433;45.596;8.408;2023-03-01T13:00:31;8.90;94.30
44707;DHT22;30433;45.596;8.408;2023-03-01T13:06:37;8.80;94.60
44707;DHT22;30433;45.596;8.408;2023-03-01T13:12:51;8.90;94.70
44707;DHT22;30433;45.596;8.408;2023-03-01T13:19:05;8.90;94.70
44707;DHT22;30433;45.596;8.408;2023-03-01T13:25:16;9.00;94.20
44707;DHT22;30433;45.596;8.408;2023-03-01T13:37:40;9.10;94.10
44707;DHT22;30433;45.596;8.408;2023-03-01T13:43:44;9.00;94.40
44707;DHT22;30433;45.596;8.408;2023-03-01T13:49:48;9.10;94.40
44707;DHT22;30433;45.596;8.408;2023-03-01T13:55:52;9.10;94.20
44707;DHT22;30433;45.596;8.408;2023-03-01T14:01:59;9.10;94.60
44707;DHT22;30433;45.596;8.408;2023-03-01T14:08:01;9.10;94.00
44707;DHT22;30433;45.596;8.408;2023-03-01T14:14:07;9.00;95.10
44707;DHT22;30433;45.596;8.408;2023-03-01T14:26:20;8.80;94.60
44707;DHT22;30433;45.596;8.408;2023-03-01T14:32:24;8.90;95.20
44707;DHT22;30433;45.596;8.408;2023-03-01T14:38:34;8.80;95.60
44707;DHT22;30433;45.596;8.408;2023-03-01T14:44:38;8.40;95.00
44707;DHT22;30433;45.596;8.408;2023-03-01T14:50:40;8.70;95.70
44707;DHT22;30433;45.596;8.408;2023-03-01T14:56:43;8.50;95.50
44707;DHT22;30433;45.596;8.408;2023-03-01T15:02:47;8.40;95.60
44707;DHT22;30433;45.596;8.408;2023-03-01T15:08:50;8.30;95.70
44707;DHT22;30433;45.596;8.408;2023-03-01T15:14:53;8.30;95.30
44707;DHT22;30433;45.596;8.408;2023-03-01T15:21:02;8.30;95.80
44707;DHT22;30433;45.596;8.408;2023-03-01T15:27:12;8.20;95.50
44707;DHT22;30433;45.596;8.408;2023-03-01T15:33:16;8.20;95.60
44707;DHT22;30433;45.596;8.408;2023-03-01T15:39:41;8.10;95.40
44707;DHT22;30433;45.596;8.408;2023-03-01T15:45:44;8.10;95.60
44707;DHT22;30433;45.596;8.408;2023-03-01T15:51:57;8.10;95.30
44707;DHT22;30433;45.596;8.408;2023-03-01T15:58:03;8.00;95.70
44707;DHT22;30433;45.596;8.408;2023-03-01T16:04:08;8.00;95.60
44707;DHT22;30433;45.596;8.408;2023-03-01T16:10:11;8.00;96.00
44707;DHT22;30433;45.596;8.408;2023-03-01T16:16:15;8.00;95.80
44707;DHT22;30433;45.596;8.408;2023-03-01T16:22:17;8.00;95.80
44707;DHT22;30433;45.596;8.408;2023-03-01T16:28:25;8.00;95.90
44707;DHT22;30433;45.596;8.408;2023-03-01T16:34:28;7.90;96.10
44707;DHT22;30433;45.596;8.408;2023-03-01T16:40:30;7.90;96.70
44707;DHT22;30433;45.596;8.408;2023-03-01T16:46:32;7.80;96.40
44707;DHT22;30433;45.596;8.408;2023-03-01T16:52:35;7.80;96.60
44707;DHT22;30433;45.596;8.408;2023-03-01T16:58:38;7.70;97.00
44707;DHT22;30433;45.596;8.408;2023-03-01T17:04:40;7.70;97.30
44707;DHT22;30433;45.596;8.408;2023-03-01T17:10:43;7.60;97.80
44707;DHT22;30433;45.596;8.408;2023-03-01T17:16:45;7.50;98.30
44707;DHT22;30433;45.596;8.408;2023-03-01T17:22:47;7.50;98.70
44707;DHT22;30433;45.596;8.408;2023-03-01T17:28:51;7.40;99.00
44707;DHT22;30433;45.596;8.408;2023-03-01T17:34:53;7.30;99.40
44707;DHT22;30433;45.596;8.408;2023-03-01T17:40:57;7.10;99.60
44707;DHT22;30433;45.596;8.408;2023-03-01T17:47:01;7.00;99.80
44707;DHT22;30433;45.596;8.408;2023-03-01T17:53:03;7.00;99.90
44707;DHT22;30433;45.596;8.408;2023-03-01T17:59:09;6.80;99.90
44707;DHT22;30433;45.596;8.408;2023-03-01T18:05:12;6.80;99.90
44707;DHT22;30433;45.596;8.408;2023-03-01T18:11:14;6.70;99.90
44707;DHT22;30433;45.596;8.408;2023-03-01T18:17:16;6.60;99.80
44707;DHT22;30433;45.596;8.408;2023-03-01T18:23:20;6.60;99.80
44707;DHT22;30433;45.596;8.408;2023-03-01T18:29:22;6.70;99.80
44707;DHT22;30433;45.596;8.408;2023-03-01T18:35:24;6.70;99.90
44707;DHT22;30433;45.596;8.408;2023-03-01T18:41:27;6.60;99.90
44707;DHT22;30433;45.596;8.408;2023-03-01T18:47:29;6.60;99.90
44707;DHT22;30433;45.596;8.408;2023-03-01T18:53:31;6.60;99.90
44707;DHT22;30433;45.596;8.408;2023-03-01T18:59:35;6.50;99.90
44707;DHT22;30433;45.596;8.408;2023-03-01T19:05:39;6.40;99.90
44707;DHT22;30433;45.596;8.408;2023-03-01T19:11:41;6.40;99.90
44707;DHT22;30433;45.596;8.408;2023-03-01T19:17:44;6.30;99.90
44707;DHT22;30433;45.596;8.408;2023-03-01T19:23:46;6.30;99.90
44707;DHT22;30433;45.596;8.408;2023-03-01T19:29:49;6.30;99.90
44707;DHT22;30433;45.596;8.408;2023-03-01T19:35:52;6.30;99.90
44707;DHT22;30433;45.596;8.408;2023-03-01T19:41:54;6.10;99.90
44707;DHT22;30433;45.596;8.408;2023-03-01T19:47:56;6.10;99.90
44707;DHT22;30433;45.596;8.408;2023-03-01T19:54:00;6.00;99.90
44707;DHT22;30433;45.596;8.408;2023-03-01T20:00:02;6.00;99.90
44707;DHT22;30433;45.596;8.408;2023-03-01T20:06:07;6.00;99.90
44707;DHT22;30433;45.596;8.408;2023-03-01T20:12:11;6.00;99.90
44707;DHT22;30433;45.596;8.408;2023-03-01T20:18:13;5.90;99.90
44707;DHT22;30433;45.596;8.408;2023-03-01T20:24:15;5.70;99.90
44707;DHT22;30433;45.596;8.408;2023-03-01T20:30:19;5.70;99.90
44707;DHT22;30433;45.596;8.408;2023-03-01T20:36:21;5.50;99.90
44707;DHT22;30433;45.596;8.408;2023-03-01T20:42:23;5.40;99.90
44707;DHT22;30433;45.596;8.408;2023-03-01T20:48:27;5.30;99.90
44707;DHT22;30433;45.596;8.408;2023-03-01T20:54:29;5.40;99.90
44707;DHT22;30433;45.596;8.408;2023-03-01T21:00:31;5.30;99.90
44707;DHT22;30433;45.596;8.408;2023-03-01T21:06:34;5.30;99.90
44707;DHT22;30433;45.596;8.408;2023-03-01T21:12:37;5.30;99.90
44707;DHT22;30433;45.596;8.408;2023-03-01T21:18:39;5.10;99.90
44707;DHT22;30433;45.596;8.408;2023-03-01T21:24:43;5.30;99.90
44707;DHT22;30433;45.596;8.408;2023-03-01T21:30:45;5.50;99.90
44707;DHT22;30433;45.596;8.408;2023-03-01T21:36:47;5.50;99.90
44707;DHT22;30433;45.596;8.408;2023-03-01T21:42:50;5.40;99.90
44707;DHT22;30433;45.596;8.408;2023-03-01T21:48:53;5.20;99.90
44707;DHT22;30433;45.596;8.408;2023-03-01T21:54:55;5.40;99.90
44707;DHT22;30433;45.596;8.408;2023-03-01T22:01:06;5.10;99.90
44707;DHT22;30433;45.596;8.408;2023-03-01T22:07:08;5.00;99.90
44707;DHT22;30433;45.596;8.408;2023-03-01T22:13:10;5.00;99.90
44707;DHT22;30433;45.596;8.408;2023-03-01T22:19:14;4.90;99.90
44707;DHT22;30433;45.596;8.408;2023-03-01T22:25:16;4.80;99.90
44707;DHT22;30433;45.596;8.408;2023-03-01T22:31:18;5.00;99.90
44707;DHT22;30433;45.596;8.408;2023-03-01T22:37:22;5.20;99.90
44707;DHT22;30433;45.596;8.408;2023-03-01T22:43:25;5.00;99.90
44707;DHT22;30433;45.596;8.408;2023-03-01T22:49:27;5.10;99.90
44707;DHT22;30433;45.596;8.408;2023-03-01T22:55:30;5.20;99.90
44707;DHT22;30433;45.596;8.408;2023-03-01T23:01:32;5.20;99.90
44707;DHT22;30433;45.596;8.408;2023-03-01T23:07:34;5.20;99.90
44707;DHT22;30433;45.596;8.408;2023-03-01T23:13:38;5.20;99.90
44707;DHT22;30433;45.596;8.408;2023-03-01T23:19:40;5.00;99.90
44707;DHT22;30433;45.596;8.408;2023-03-01T23:25:51;5.00;99.90
44707;DHT22;30433;45.596;8.408;2023-03-01T23:31:55;4.70;99.90
44707;DHT22;30433;45.596;8.408;2023-03-01T23:37:57;4.70;99.90
44707;DHT22;30433;45.596;8.408;2023-03-01T23:44:00;4.90;99.90
44707;DHT22;30433;45.596;8.408;2023-03-01T23:50:04;4.30;99.90
44707;DHT22;30433;45.596;8.408;2023-03-01T23:56:06;4.70;99.90
